sensor_id;sensor_type;location;lat;lon;timestamp;P1;durP1;ratioP1;P2;durP2;ratioP2
74833;SDS011;63361;52.384;20.930;2022-11-04T00:01:40;34.53;;;14.05;;
74833;SDS011;63361;52.384;20.930;2022-11-04T00:04:07;36.25;;;13.98;;
74833;SDS011;63361;52.384;20.930;2022-11-04T00:06:33;35.95;;;13.75;;
74833;SDS011;63361;52.384;20.930;2022-11-04T00:08:59;37.23;;;14.27;;
74833;SDS011;63361;52.384;20.930;2022-11-04T00:11:25;35.05;;;13.73;;
74833;SDS011;63361;52.384;20.930;2022-11-04T00:14:10;33.43;;;12.30;;
74833;SDS011;63361;52.384;20.930;2022-11-04T00:16:37;37.17;;;13.48;;
74833;SDS011;63361;52.384;20.930;2022-11-04T00:19:21;35.65;;;12.60;;
74833;SDS011;63361;52.384;20.930;2022-11-04T00:21:46;31.60;;;14.53;;
74833;SDS011;63361;52.384;20.930;2022-11-04T00:24:30;37.40;;;13.75;;
74833;SDS011;63361;52.384;20.930;2022-11-04T00:27:15;28.73;;;13.68;;
74833;SDS011;63361;52.384;20.930;2022-11-04T00:30:01;34.15;;;12.73;;
74833;SDS011;63361;52.384;20.930;2022-11-04T00:32:27;50.03;;;16.13;;
74833;SDS011;63361;52.384;20.930;2022-11-04T00:35:11;38.17;;;13.40;;
74833;SDS011;63361;52.384;20.930;2022-11-04T00:37:38;31.65;;;13.18;;
74833;SDS011;63361;52.384;20.930;2022-11-04T00:40:04;37.33;;;14.35;;
74833;SDS011;63361;52.384;20.930;2022-11-04T00:42:30;33.30;;;13.65;;
74833;SDS011;63361;52.384;20.930;2022-11-04T00:44:56;32.90;;;13.13;;
74833;SDS011;63361;52.384;20.930;2022-11-04T00:47:21;33.53;;;14.03;;
74833;SDS011;63361;52.384;20.930;2022-11-04T00:49:47;36.67;;;13.00;;
74833;SDS011;63361;52.384;20.930;2022-11-04T00:52:12;33.05;;;12.85;;
74833;SDS011;63361;52.384;20.930;2022-11-04T00:54:37;33.17;;;13.50;;
74833;SDS011;63361;52.384;20.930;2022-11-04T00:57:03;36.33;;;14.17;;
74833;SDS011;63361;52.384;20.930;2022-11-04T00:59:28;37.50;;;13.87;;
74833;SDS011;63361;52.384;20.930;2022-11-04T01:01:54;35.13;;;12.43;;
74833;SDS011;63361;52.384;20.930;2022-11-04T01:04:20;32.25;;;13.30;;
74833;SDS011;63361;52.384;20.930;2022-11-04T01:06:45;32.43;;;13.90;;
74833;SDS011;63361;52.384;20.930;2022-11-04T01:09:11;28.90;;;12.13;;
74833;SDS011;63361;52.384;20.930;2022-11-04T01:11:37;28.33;;;12.48;;
74833;SDS011;63361;52.384;20.930;2022-11-04T01:14:02;36.83;;;12.87;;
74833;SDS011;63361;52.384;20.930;2022-11-04T01:16:28;34.40;;;13.55;;
74833;SDS011;63361;52.384;20.930;2022-11-04T01:18:53;30.07;;;13.00;;
74833;SDS011;63361;52.384;20.930;2022-11-04T01:21:19;30.73;;;13.03;;
74833;SDS011;63361;52.384;20.930;2022-11-04T01:23:45;33.17;;;13.18;;
74833;SDS011;63361;52.384;20.930;2022-11-04T01:26:12;30.47;;;13.13;;
74833;SDS011;63361;52.384;20.930;2022-11-04T01:28:39;31.77;;;13.60;;
74833;SDS011;63361;52.384;20.930;2022-11-04T01:31:08;31.50;;;12.97;;
74833;SDS011;63361;52.384;20.930;2022-11-04T01:33:35;31.58;;;13.90;;
74833;SDS011;63361;52.384;20.930;2022-11-04T01:36:01;34.22;;;13.80;;
74833;SDS011;63361;52.384;20.930;2022-11-04T01:38:27;29.08;;;13.15;;
74833;SDS011;63361;52.384;20.930;2022-11-04T01:40:53;31.63;;;13.30;;
74833;SDS011;63361;52.384;20.930;2022-11-04T01:43:19;32.40;;;13.00;;
74833;SDS011;63361;52.384;20.930;2022-11-04T01:45:50;32.00;;;13.30;;
74833;SDS011;63361;52.384;20.930;2022-11-04T01:48:21;29.13;;;12.93;;
74833;SDS011;63361;52.384;20.930;2022-11-04T01:50:50;30.45;;;13.95;;
74833;SDS011;63361;52.384;20.930;2022-11-04T01:53:25;27.92;;;12.90;;
74833;SDS011;63361;52.384;20.930;2022-11-04T01:55:55;33.50;;;13.95;;
74833;SDS011;63361;52.384;20.930;2022-11-04T01:58:24;37.25;;;13.40;;
74833;SDS011;63361;52.384;20.930;2022-11-04T02:00:53;28.93;;;12.87;;
74833;SDS011;63361;52.384;20.930;2022-11-04T02:03:25;32.80;;;12.50;;
74833;SDS011;63361;52.384;20.930;2022-11-04T02:05:54;28.87;;;11.87;;
74833;SDS011;63361;52.384;20.930;2022-11-04T02:08:21;26.30;;;11.80;;
74833;SDS011;63361;52.384;20.930;2022-11-04T02:10:48;31.55;;;12.50;;
74833;SDS011;63361;52.384;20.930;2022-11-04T02:13:18;25.17;;;11.75;;
74833;SDS011;63361;52.384;20.930;2022-11-04T02:21:29;24.85;;;11.23;;
74833;SDS011;63361;52.384;20.930;2022-11-04T02:24:36;26.07;;;11.40;;
74833;SDS011;63361;52.384;20.930;2022-11-04T02:32:41;24.98;;;10.75;;
74833;SDS011;63361;52.384;20.930;2022-11-04T02:46:08;26.58;;;10.80;;
74833;SDS011;63361;52.384;20.930;2022-11-04T02:48:52;22.67;;;10.32;;
74833;SDS011;63361;52.384;20.930;2022-11-04T02:56:53;20.63;;;9.60;;
74833;SDS011;63361;52.384;20.930;2022-11-04T02:59:34;21.08;;;9.40;;
74833;SDS011;63361;52.384;20.930;2022-11-04T03:02:04;21.83;;;9.75;;
74833;SDS011;63361;52.384;20.930;2022-11-04T03:04:42;25.70;;;9.40;;
74833;SDS011;63361;52.384;20.930;2022-11-04T03:07:11;18.55;;;9.07;;
74833;SDS011;63361;52.384;20.930;2022-11-04T03:09:40;16.02;;;9.05;;
74833;SDS011;63361;52.384;20.930;2022-11-04T03:12:14;22.27;;;8.35;;
74833;SDS011;63361;52.384;20.930;2022-11-04T03:14:47;22.67;;;8.90;;
74833;SDS011;63361;52.384;20.930;2022-11-04T03:17:30;20.63;;;8.43;;
74833;SDS011;63361;52.384;20.930;2022-11-04T03:20:01;17.30;;;8.07;;
74833;SDS011;63361;52.384;20.930;2022-11-04T03:22:34;18.38;;;8.32;;
74833;SDS011;63361;52.384;20.930;2022-11-04T03:25:01;15.45;;;7.72;;
74833;SDS011;63361;52.384;20.930;2022-11-04T03:30:22;19.30;;;8.23;;
74833;SDS011;63361;52.384;20.930;2022-11-04T03:35:32;16.63;;;8.05;;
74833;SDS011;63361;52.384;20.930;2022-11-04T03:37:57;19.33;;;7.33;;
74833;SDS011;63361;52.384;20.930;2022-11-04T03:40:23;18.40;;;7.47;;
74833;SDS011;63361;52.384;20.930;2022-11-04T03:42:52;17.40;;;7.40;;
74833;SDS011;63361;52.384;20.930;2022-11-04T03:45:23;17.52;;;7.32;;
74833;SDS011;63361;52.384;20.930;2022-11-04T03:47:49;19.97;;;8.67;;
74833;SDS011;63361;52.384;20.930;2022-11-04T03:50:29;20.25;;;8.40;;
74833;SDS011;63361;52.384;20.930;2022-11-04T03:52:55;20.80;;;7.85;;
74833;SDS011;63361;52.384;20.930;2022-11-04T03:55:46;15.30;;;7.22;;
74833;SDS011;63361;52.384;20.930;2022-11-04T04:06:31;20.20;;;7.67;;
74833;SDS011;63361;52.384;20.930;2022-11-04T04:09:21;17.35;;;7.78;;
74833;SDS011;63361;52.384;20.930;2022-11-04T04:11:57;24.55;;;7.57;;
74833;SDS011;63361;52.384;20.930;2022-11-04T04:14:30;17.52;;;7.35;;
74833;SDS011;63361;52.384;20.930;2022-11-04T04:19:33;14.37;;;7.10;;
74833;SDS011;63361;52.384;20.930;2022-11-04T04:22:00;15.55;;;6.72;;
74833;SDS011;63361;52.384;20.930;2022-11-04T04:24:32;16.88;;;7.65;;
74833;SDS011;63361;52.384;20.930;2022-11-04T04:27:20;19.77;;;7.40;;
74833;SDS011;63361;52.384;20.930;2022-11-04T04:29:57;19.02;;;7.03;;
74833;SDS011;63361;52.384;20.930;2022-11-04T04:32:25;15.53;;;7.97;;
74833;SDS011;63361;52.384;20.930;2022-11-04T04:34:53;17.52;;;6.82;;
74833;SDS011;63361;52.384;20.930;2022-11-04T04:37:38;14.77;;;7.38;;
74833;SDS011;63361;52.384;20.930;2022-11-04T04:40:06;20.02;;;7.80;;
74833;SDS011;63361;52.384;20.930;2022-11-04T04:42:54;16.45;;;6.63;;
74833;SDS011;63361;52.384;20.930;2022-11-04T04:45:49;14.70;;;6.93;;
74833;SDS011;63361;52.384;20.930;2022-11-04T04:48:17;20.05;;;6.63;;
74833;SDS011;63361;52.384;20.930;2022-11-04T04:50:44;15.95;;;6.47;;
74833;SDS011;63361;52.384;20.930;2022-11-04T04:53:12;18.48;;;7.35;;
74833;SDS011;63361;52.384;20.930;2022-11-04T04:55:38;18.70;;;6.60;;
74833;SDS011;63361;52.384;20.930;2022-11-04T04:58:03;16.50;;;6.57;;
74833;SDS011;63361;52.384;20.930;2022-11-04T05:00:29;17.70;;;7.23;;
74833;SDS011;63361;52.384;20.930;2022-11-04T05:02:54;19.73;;;8.00;;
74833;SDS011;63361;52.384;20.930;2022-11-04T05:05:20;18.13;;;6.90;;
74833;SDS011;63361;52.384;20.930;2022-11-04T05:07:46;16.33;;;7.40;;
74833;SDS011;63361;52.384;20.930;2022-11-04T05:10:12;15.80;;;7.30;;
74833;SDS011;63361;52.384;20.930;2022-11-04T05:12:39;15.02;;;6.85;;
74833;SDS011;63361;52.384;20.930;2022-11-04T05:15:24;21.15;;;7.32;;
74833;SDS011;63361;52.384;20.930;2022-11-04T05:17:57;13.88;;;6.45;;
74833;SDS011;63361;52.384;20.930;2022-11-04T05:20:25;18.37;;;6.43;;
74833;SDS011;63361;52.384;20.930;2022-11-04T05:22:51;15.63;;;6.18;;
74833;SDS011;63361;52.384;20.930;2022-11-04T05:25:18;18.02;;;7.07;;
74833;SDS011;63361;52.384;20.930;2022-11-04T05:27:43;16.70;;;7.03;;
74833;SDS011;63361;52.384;20.930;2022-11-04T05:30:09;16.00;;;6.77;;
74833;SDS011;63361;52.384;20.930;2022-11-04T05:32:34;15.30;;;6.70;;
74833;SDS011;63361;52.384;20.930;2022-11-04T05:35:00;17.00;;;6.50;;
74833;SDS011;63361;52.384;20.930;2022-11-04T05:37:25;19.53;;;6.70;;
74833;SDS011;63361;52.384;20.930;2022-11-04T05:39:51;17.50;;;6.65;;
74833;SDS011;63361;52.384;20.930;2022-11-04T05:42:17;16.40;;;6.17;;
74833;SDS011;63361;52.384;20.930;2022-11-04T05:44:42;14.88;;;5.97;;
74833;SDS011;63361;52.384;20.930;2022-11-04T05:47:08;16.40;;;6.33;;
74833;SDS011;63361;52.384;20.930;2022-11-04T05:49:33;13.10;;;5.60;;
74833;SDS011;63361;52.384;20.930;2022-11-04T05:51:58;15.37;;;6.27;;
74833;SDS011;63361;52.384;20.930;2022-11-04T05:54:24;14.43;;;6.80;;
74833;SDS011;63361;52.384;20.930;2022-11-04T05:56:50;15.13;;;6.68;;
74833;SDS011;63361;52.384;20.930;2022-11-04T05:59:16;12.93;;;6.20;;
74833;SDS011;63361;52.384;20.930;2022-11-04T06:01:41;16.83;;;5.67;;
74833;SDS011;63361;52.384;20.930;2022-11-04T06:04:08;15.07;;;6.13;;
74833;SDS011;63361;52.384;20.930;2022-11-04T06:06:38;13.50;;;5.40;;
74833;SDS011;63361;52.384;20.930;2022-11-04T06:09:04;12.00;;;6.10;;
74833;SDS011;63361;52.384;20.930;2022-11-04T06:11:30;14.97;;;6.33;;
74833;SDS011;63361;52.384;20.930;2022-11-04T06:13:56;15.10;;;5.85;;
74833;SDS011;63361;52.384;20.930;2022-11-04T06:16:22;16.73;;;6.07;;
74833;SDS011;63361;52.384;20.930;2022-11-04T06:18:48;13.63;;;5.83;;
74833;SDS011;63361;52.384;20.930;2022-11-04T06:23:42;12.87;;;5.23;;
74833;SDS011;63361;52.384;20.930;2022-11-04T06:26:08;13.80;;;6.15;;
74833;SDS011;63361;52.384;20.930;2022-11-04T06:28:35;15.55;;;5.80;;
74833;SDS011;63361;52.384;20.930;2022-11-04T06:31:01;12.87;;;5.60;;
74833;SDS011;63361;52.384;20.930;2022-11-04T06:33:29;12.63;;;5.40;;
74833;SDS011;63361;52.384;20.930;2022-11-04T06:36:01;12.60;;;5.20;;
74833;SDS011;63361;52.384;20.930;2022-11-04T06:38:30;14.73;;;5.50;;
74833;SDS011;63361;52.384;20.930;2022-11-04T06:40:57;12.52;;;5.88;;
74833;SDS011;63361;52.384;20.930;2022-11-04T06:43:22;17.17;;;5.72;;
74833;SDS011;63361;52.384;20.930;2022-11-04T06:45:51;12.27;;;5.33;;
74833;SDS011;63361;52.384;20.930;2022-11-04T06:48:18;14.48;;;6.22;;
74833;SDS011;63361;52.384;20.930;2022-11-04T06:50:43;14.40;;;6.13;;
74833;SDS011;63361;52.384;20.930;2022-11-04T06:53:08;13.10;;;5.53;;
74833;SDS011;63361;52.384;20.930;2022-11-04T06:55:34;15.77;;;5.60;;
74833;SDS011;63361;52.384;20.930;2022-11-04T06:57:59;14.68;;;6.07;;
74833;SDS011;63361;52.384;20.930;2022-11-04T07:00:24;15.27;;;6.13;;
74833;SDS011;63361;52.384;20.930;2022-11-04T07:02:50;15.53;;;5.70;;
74833;SDS011;63361;52.384;20.930;2022-11-04T07:05:16;12.73;;;6.17;;
74833;SDS011;63361;52.384;20.930;2022-11-04T07:07:41;13.20;;;6.05;;
74833;SDS011;63361;52.384;20.930;2022-11-04T07:10:06;13.30;;;6.60;;
74833;SDS011;63361;52.384;20.930;2022-11-04T07:12:32;13.23;;;5.70;;
74833;SDS011;63361;52.384;20.930;2022-11-04T07:14:57;12.63;;;6.53;;
74833;SDS011;63361;52.384;20.930;2022-11-04T07:17:23;11.97;;;6.17;;
74833;SDS011;63361;52.384;20.930;2022-11-04T07:19:48;12.20;;;6.20;;
74833;SDS011;63361;52.384;20.930;2022-11-04T07:22:14;11.77;;;5.90;;
74833;SDS011;63361;52.384;20.930;2022-11-04T07:24:39;14.37;;;5.80;;
74833;SDS011;63361;52.384;20.930;2022-11-04T07:27:04;15.73;;;5.80;;
74833;SDS011;63361;52.384;20.930;2022-11-04T07:29:31;14.27;;;5.60;;
74833;SDS011;63361;52.384;20.930;2022-11-04T07:31:57;15.95;;;6.05;;
74833;SDS011;63361;52.384;20.930;2022-11-04T07:34:22;17.00;;;6.10;;
74833;SDS011;63361;52.384;20.930;2022-11-04T07:36:48;15.30;;;6.63;;
74833;SDS011;63361;52.384;20.930;2022-11-04T07:39:13;19.70;;;6.10;;
74833;SDS011;63361;52.384;20.930;2022-11-04T07:41:39;14.50;;;5.90;;
74833;SDS011;63361;52.384;20.930;2022-11-04T07:44:04;15.37;;;6.67;;
74833;SDS011;63361;52.384;20.930;2022-11-04T07:46:30;12.15;;;5.57;;
74833;SDS011;63361;52.384;20.930;2022-11-04T07:48:56;12.50;;;5.87;;
74833;SDS011;63361;52.384;20.930;2022-11-04T07:51:23;13.07;;;6.03;;
74833;SDS011;63361;52.384;20.930;2022-11-04T07:53:49;15.77;;;5.85;;
74833;SDS011;63361;52.384;20.930;2022-11-04T07:56:14;15.43;;;5.83;;
74833;SDS011;63361;52.384;20.930;2022-11-04T07:58:40;14.88;;;6.65;;
74833;SDS011;63361;52.384;20.930;2022-11-04T08:01:08;17.75;;;6.55;;
74833;SDS011;63361;52.384;20.930;2022-11-04T08:03:36;12.73;;;6.10;;
74833;SDS011;63361;52.384;20.930;2022-11-04T08:06:03;15.02;;;6.43;;
74833;SDS011;63361;52.384;20.930;2022-11-04T08:08:30;13.93;;;6.00;;
74833;SDS011;63361;52.384;20.930;2022-11-04T08:10:58;13.93;;;6.40;;
74833;SDS011;63361;52.384;20.930;2022-11-04T08:13:29;15.40;;;6.80;;
74833;SDS011;63361;52.384;20.930;2022-11-04T08:15:56;14.32;;;6.70;;
74833;SDS011;63361;52.384;20.930;2022-11-04T08:18:26;16.55;;;6.63;;
74833;SDS011;63361;52.384;20.930;2022-11-04T08:20:52;14.17;;;6.03;;
74833;SDS011;63361;52.384;20.930;2022-11-04T08:23:17;13.52;;;6.20;;
74833;SDS011;63361;52.384;20.930;2022-11-04T08:25:43;13.13;;;7.17;;
74833;SDS011;63361;52.384;20.930;2022-11-04T08:28:09;15.23;;;6.90;;
74833;SDS011;63361;52.384;20.930;2022-11-04T08:30:41;15.38;;;6.90;;
74833;SDS011;63361;52.384;20.930;2022-11-04T08:33:20;18.73;;;7.07;;
74833;SDS011;63361;52.384;20.930;2022-11-04T08:35:46;17.70;;;6.90;;
74833;SDS011;63361;52.384;20.930;2022-11-04T08:38:11;18.27;;;6.27;;
74833;SDS011;63361;52.384;20.930;2022-11-04T08:40:37;17.53;;;7.30;;
74833;SDS011;63361;52.384;20.930;2022-11-04T08:43:02;14.60;;;6.23;;
74833;SDS011;63361;52.384;20.930;2022-11-04T08:45:27;17.83;;;6.65;;
74833;SDS011;63361;52.384;20.930;2022-11-04T08:47:53;17.40;;;6.57;;
74833;SDS011;63361;52.384;20.930;2022-11-04T08:50:18;17.70;;;6.63;;
74833;SDS011;63361;52.384;20.930;2022-11-04T08:52:44;18.02;;;6.93;;
74833;SDS011;63361;52.384;20.930;2022-11-04T08:55:09;16.47;;;6.83;;
74833;SDS011;63361;52.384;20.930;2022-11-04T08:57:35;14.00;;;6.73;;
74833;SDS011;63361;52.384;20.930;2022-11-04T09:00:00;17.63;;;6.67;;
74833;SDS011;63361;52.384;20.930;2022-11-04T09:02:26;17.67;;;7.80;;
74833;SDS011;63361;52.384;20.930;2022-11-04T09:04:52;16.10;;;6.23;;
74833;SDS011;63361;52.384;20.930;2022-11-04T09:07:17;15.20;;;6.70;;
74833;SDS011;63361;52.384;20.930;2022-11-04T09:09:42;14.60;;;6.57;;
74833;SDS011;63361;52.384;20.930;2022-11-04T09:12:09;14.95;;;6.32;;
74833;SDS011;63361;52.384;20.930;2022-11-04T09:14:35;16.67;;;7.00;;
74833;SDS011;63361;52.384;20.930;2022-11-04T09:17:00;14.43;;;6.55;;
74833;SDS011;63361;52.384;20.930;2022-11-04T09:19:26;16.23;;;6.93;;
74833;SDS011;63361;52.384;20.930;2022-11-04T09:21:51;15.47;;;6.60;;
74833;SDS011;63361;52.384;20.930;2022-11-04T09:24:17;19.00;;;7.30;;
74833;SDS011;63361;52.384;20.930;2022-11-04T09:26:42;14.43;;;6.10;;
74833;SDS011;63361;52.384;20.930;2022-11-04T09:29:08;15.00;;;6.05;;
74833;SDS011;63361;52.384;20.930;2022-11-04T09:31:34;16.53;;;6.73;;
74833;SDS011;63361;52.384;20.930;2022-11-04T09:34:00;17.63;;;6.47;;
74833;SDS011;63361;52.384;20.930;2022-11-04T09:36:26;14.70;;;6.63;;
74833;SDS011;63361;52.384;20.930;2022-11-04T09:38:53;14.00;;;6.45;;
74833;SDS011;63361;52.384;20.930;2022-11-04T09:46:43;16.42;;;6.80;;
74833;SDS011;63361;52.384;20.930;2022-11-04T09:49:13;17.47;;;6.93;;
74833;SDS011;63361;52.384;20.930;2022-11-04T09:51:40;17.73;;;6.60;;
74833;SDS011;63361;52.384;20.930;2022-11-04T09:54:21;13.88;;;6.50;;
74833;SDS011;63361;52.384;20.930;2022-11-04T09:56:50;17.00;;;6.65;;
74833;SDS011;63361;52.384;20.930;2022-11-04T09:59:25;16.88;;;6.60;;
74833;SDS011;63361;52.384;20.930;2022-11-04T10:07:40;14.30;;;6.38;;
74833;SDS011;63361;52.384;20.930;2022-11-04T10:10:19;13.15;;;6.38;;
74833;SDS011;63361;52.384;20.930;2022-11-04T10:16:01;15.67;;;6.33;;
74833;SDS011;63361;52.384;20.930;2022-11-04T10:21:16;12.43;;;6.47;;
74833;SDS011;63361;52.384;20.930;2022-11-04T10:29:32;12.88;;;6.28;;
74833;SDS011;63361;52.384;20.930;2022-11-04T10:32:11;11.23;;;5.07;;
74833;SDS011;63361;52.384;20.930;2022-11-04T10:34:40;13.93;;;6.18;;
74833;SDS011;63361;52.384;20.930;2022-11-04T10:37:11;14.75;;;7.25;;
74833;SDS011;63361;52.384;20.930;2022-11-04T10:39:38;10.65;;;5.53;;
74833;SDS011;63361;52.384;20.930;2022-11-04T10:42:11;14.52;;;5.90;;
74833;SDS011;63361;52.384;20.930;2022-11-04T10:44:40;12.83;;;6.20;;
74833;SDS011;63361;52.384;20.930;2022-11-04T10:52:32;11.90;;;5.80;;
74833;SDS011;63361;52.384;20.930;2022-11-04T10:54:59;15.03;;;6.33;;
74833;SDS011;63361;52.384;20.930;2022-11-04T10:57:25;16.35;;;6.00;;
74833;SDS011;63361;52.384;20.930;2022-11-04T11:07:41;12.35;;;5.85;;
74833;SDS011;63361;52.384;20.930;2022-11-04T11:10:18;12.90;;;5.85;;
74833;SDS011;63361;52.384;20.930;2022-11-04T11:12:53;11.77;;;6.22;;
74833;SDS011;63361;52.384;20.930;2022-11-04T11:17:47;12.52;;;5.93;;
74833;SDS011;63361;52.384;20.930;2022-11-04T11:22:47;12.48;;;6.10;;
74833;SDS011;63361;52.384;20.930;2022-11-04T11:27:58;12.03;;;5.37;;
74833;SDS011;63361;52.384;20.930;2022-11-04T11:33:14;11.73;;;5.32;;
74833;SDS011;63361;52.384;20.930;2022-11-04T11:35:48;10.82;;;5.75;;
74833;SDS011;63361;52.384;20.930;2022-11-04T11:38:17;11.32;;;5.75;;
74833;SDS011;63361;52.384;20.930;2022-11-04T11:40:47;12.57;;;6.30;;
74833;SDS011;63361;52.384;20.930;2022-11-04T11:43:26;14.35;;;5.63;;
74833;SDS011;63361;52.384;20.930;2022-11-04T11:45:55;12.23;;;5.93;;
74833;SDS011;63361;52.384;20.930;2022-11-04T11:48:26;10.60;;;5.38;;
74833;SDS011;63361;52.384;20.930;2022-11-04T11:50:56;14.55;;;6.38;;
74833;SDS011;63361;52.384;20.930;2022-11-04T11:53:24;12.30;;;5.73;;
74833;SDS011;63361;52.384;20.930;2022-11-04T11:55:57;14.55;;;6.30;;
74833;SDS011;63361;52.384;20.930;2022-11-04T11:58:26;10.68;;;5.32;;
74833;SDS011;63361;52.384;20.930;2022-11-04T12:01:12;15.40;;;5.35;;
74833;SDS011;63361;52.384;20.930;2022-11-04T12:03:45;12.40;;;6.07;;
74833;SDS011;63361;52.384;20.930;2022-11-04T12:14:44;11.48;;;5.70;;
74833;SDS011;63361;52.384;20.930;2022-11-04T12:26:11;11.23;;;5.60;;
74833;SDS011;63361;52.384;20.930;2022-11-04T12:29:22;11.55;;;5.38;;
74833;SDS011;63361;52.384;20.930;2022-11-04T12:43:46;10.75;;;5.05;;
74833;SDS011;63361;52.384;20.930;2022-11-04T12:52:14;10.45;;;4.93;;
74833;SDS011;63361;52.384;20.930;2022-11-04T13:00:53;14.32;;;5.78;;
74833;SDS011;63361;52.384;20.930;2022-11-04T13:03:35;11.67;;;4.63;;
74833;SDS011;63361;52.384;20.930;2022-11-04T13:06:49;12.55;;;6.18;;
74833;SDS011;63361;52.384;20.930;2022-11-04T13:09:13;16.02;;;8.95;;
74833;SDS011;63361;52.384;20.930;2022-11-04T13:11:50;11.32;;;7.03;;
74833;SDS011;63361;52.384;20.930;2022-11-04T13:14:23;11.57;;;5.75;;
74833;SDS011;63361;52.384;20.930;2022-11-04T13:17:04;10.07;;;5.77;;
74833;SDS011;63361;52.384;20.930;2022-11-04T13:22:31;9.23;;;5.20;;
74833;SDS011;63361;52.384;20.930;2022-11-04T13:25:05;12.02;;;5.10;;
74833;SDS011;63361;52.384;20.930;2022-11-04T13:27:46;8.43;;;4.63;;
74833;SDS011;63361;52.384;20.930;2022-11-04T13:33:51;12.27;;;5.22;;
74833;SDS011;63361;52.384;20.930;2022-11-04T13:36:44;13.45;;;5.43;;
74833;SDS011;63361;52.384;20.930;2022-11-04T13:39:40;11.07;;;5.30;;
74833;SDS011;63361;52.384;20.930;2022-11-04T13:42:18;10.30;;;4.47;;
74833;SDS011;63361;52.384;20.930;2022-11-04T13:45:05;11.00;;;5.33;;
74833;SDS011;63361;52.384;20.930;2022-11-04T13:47:57;9.93;;;4.32;;
74833;SDS011;63361;52.384;20.930;2022-11-04T13:53:08;13.75;;;5.25;;
74833;SDS011;63361;52.384;20.930;2022-11-04T13:55:51;14.55;;;4.85;;
74833;SDS011;63361;52.384;20.930;2022-11-04T13:58:19;12.03;;;5.50;;
74833;SDS011;63361;52.384;20.930;2022-11-04T14:15:03;17.50;;;6.90;;
74833;SDS011;63361;52.384;20.930;2022-11-04T14:22:30;12.52;;;5.78;;
74833;SDS011;63361;52.384;20.930;2022-11-04T14:25:00;10.00;;;5.13;;
74833;SDS011;63361;52.384;20.930;2022-11-04T14:27:35;12.90;;;5.35;;
74833;SDS011;63361;52.384;20.930;2022-11-04T14:30:05;11.97;;;5.37;;
74833;SDS011;63361;52.384;20.930;2022-11-04T14:35:53;11.38;;;5.72;;
74833;SDS011;63361;52.384;20.930;2022-11-04T14:43:46;10.63;;;5.33;;
74833;SDS011;63361;52.384;20.930;2022-11-04T14:46:17;12.45;;;5.35;;
74833;SDS011;63361;52.384;20.930;2022-11-04T14:48:47;11.60;;;5.20;;
74833;SDS011;63361;52.384;20.930;2022-11-04T14:51:20;12.32;;;5.72;;
74833;SDS011;63361;52.384;20.930;2022-11-04T14:54:30;11.20;;;6.15;;
74833;SDS011;63361;52.384;20.930;2022-11-04T14:56:50;12.90;;;5.07;;
74833;SDS011;63361;52.384;20.930;2022-11-04T14:59:20;17.77;;;6.80;;
74833;SDS011;63361;52.384;20.930;2022-11-04T15:01:47;22.17;;;7.88;;
74833;SDS011;63361;52.384;20.930;2022-11-04T15:04:23;14.30;;;6.13;;
74833;SDS011;63361;52.384;20.930;2022-11-04T15:07:02;12.18;;;5.25;;
74833;SDS011;63361;52.384;20.930;2022-11-04T15:09:30;14.53;;;6.00;;
74833;SDS011;63361;52.384;20.930;2022-11-04T15:14:51;13.30;;;5.90;;
74833;SDS011;63361;52.384;20.930;2022-11-04T15:17:18;19.02;;;7.40;;
74833;SDS011;63361;52.384;20.930;2022-11-04T15:19:52;16.63;;;6.63;;
74833;SDS011;63361;52.384;20.930;2022-11-04T15:22:22;14.00;;;6.80;;
74833;SDS011;63361;52.384;20.930;2022-11-04T15:24:48;17.50;;;6.43;;
74833;SDS011;63361;52.384;20.930;2022-11-04T15:27:18;14.52;;;6.63;;
74833;SDS011;63361;52.384;20.930;2022-11-04T15:29:54;11.68;;;6.10;;
74833;SDS011;63361;52.384;20.930;2022-11-04T15:32:28;19.37;;;6.80;;
74833;SDS011;63361;52.384;20.930;2022-11-04T15:34:56;25.05;;;9.15;;
74833;SDS011;63361;52.384;20.930;2022-11-04T15:37:25;17.83;;;6.25;;
74833;SDS011;63361;52.384;20.930;2022-11-04T15:39:54;13.75;;;6.22;;
74833;SDS011;63361;52.384;20.930;2022-11-04T15:42:22;17.27;;;7.57;;
74833;SDS011;63361;52.384;20.930;2022-11-04T15:51:09;21.73;;;8.50;;
74833;SDS011;63361;52.384;20.930;2022-11-04T15:53:53;13.32;;;7.05;;
74833;SDS011;63361;52.384;20.930;2022-11-04T15:56:22;14.25;;;7.28;;
74833;SDS011;63361;52.384;20.930;2022-11-04T15:58:51;14.53;;;5.63;;
74833;SDS011;63361;52.384;20.930;2022-11-04T16:01:18;15.07;;;6.20;;
74833;SDS011;63361;52.384;20.930;2022-11-04T16:03:55;15.52;;;7.03;;
74833;SDS011;63361;52.384;20.930;2022-11-04T16:06:33;13.40;;;6.22;;
74833;SDS011;63361;52.384;20.930;2022-11-04T16:11:35;21.10;;;8.87;;
74833;SDS011;63361;52.384;20.930;2022-11-04T16:14:20;13.57;;;7.13;;
74833;SDS011;63361;52.384;20.930;2022-11-04T16:16:48;11.85;;;6.05;;
74833;SDS011;63361;52.384;20.930;2022-11-04T16:19:17;14.25;;;6.43;;
74833;SDS011;63361;52.384;20.930;2022-11-04T16:21:45;105.20;;;54.58;;
74833;SDS011;63361;52.384;20.930;2022-11-04T16:26:53;30.77;;;14.00;;
74833;SDS011;63361;52.384;20.930;2022-11-04T16:32:07;40.22;;;19.63;;
74833;SDS011;63361;52.384;20.930;2022-11-04T16:34:46;13.70;;;6.15;;
74833;SDS011;63361;52.384;20.930;2022-11-04T16:37:13;17.57;;;9.47;;
74833;SDS011;63361;52.384;20.930;2022-11-04T16:39:39;15.30;;;8.02;;
74833;SDS011;63361;52.384;20.930;2022-11-04T16:42:12;17.25;;;7.25;;
74833;SDS011;63361;52.384;20.930;2022-11-04T16:44:39;17.23;;;7.70;;
74833;SDS011;63361;52.384;20.930;2022-11-04T16:47:11;26.70;;;14.23;;
74833;SDS011;63361;52.384;20.930;2022-11-04T16:49:45;15.73;;;7.65;;
74833;SDS011;63361;52.384;20.930;2022-11-04T16:52:13;15.88;;;7.45;;
74833;SDS011;63361;52.384;20.930;2022-11-04T16:54:45;19.83;;;8.32;;
74833;SDS011;63361;52.384;20.930;2022-11-04T16:57:12;13.43;;;6.50;;
74833;SDS011;63361;52.384;20.930;2022-11-04T16:59:38;16.15;;;7.25;;
74833;SDS011;63361;52.384;20.930;2022-11-04T17:02:39;21.25;;;10.02;;
74833;SDS011;63361;52.384;20.930;2022-11-04T17:05:05;27.27;;;14.18;;
74833;SDS011;63361;52.384;20.930;2022-11-04T17:07:32;19.73;;;9.80;;
74833;SDS011;63361;52.384;20.930;2022-11-04T17:09:58;20.00;;;10.57;;
74833;SDS011;63361;52.384;20.930;2022-11-04T17:12:23;13.80;;;6.75;;
74833;SDS011;63361;52.384;20.930;2022-11-04T17:14:52;16.13;;;7.43;;
74833;SDS011;63361;52.384;20.930;2022-11-04T17:17:20;12.20;;;6.63;;
74833;SDS011;63361;52.384;20.930;2022-11-04T17:19:46;19.05;;;8.27;;
74833;SDS011;63361;52.384;20.930;2022-11-04T17:22:11;14.43;;;6.83;;
74833;SDS011;63361;52.384;20.930;2022-11-04T17:24:36;12.93;;;7.27;;
74833;SDS011;63361;52.384;20.930;2022-11-04T17:27:02;17.85;;;7.30;;
74833;SDS011;63361;52.384;20.930;2022-11-04T17:29:28;16.80;;;7.60;;
74833;SDS011;63361;52.384;20.930;2022-11-04T17:31:54;15.25;;;7.07;;
74833;SDS011;63361;52.384;20.930;2022-11-04T17:34:19;14.53;;;7.20;;
74833;SDS011;63361;52.384;20.930;2022-11-04T17:36:49;19.42;;;8.32;;
74833;SDS011;63361;52.384;20.930;2022-11-04T17:39:14;15.23;;;7.57;;
74833;SDS011;63361;52.384;20.930;2022-11-04T17:41:40;15.10;;;7.30;;
74833;SDS011;63361;52.384;20.930;2022-11-04T17:44:24;19.45;;;8.35;;